createdAt,value
2019-01-03T00:02:03.068Z,100100.38
2019-01-03T00:04:51.791Z,100099.38
2019-01-03T00:07:40.370Z,100099.59
2019-01-03T00:10:29.455Z,100102.55
2019-01-03T00:13:18.335Z,100101.42
2019-01-03T00:16:09.955Z,100117.22
2019-01-03T00:18:59.076Z,100120.38
2019-01-03T00:21:57.057Z,100116.84
2019-01-03T00:25:01.974Z,100116.84
2019-01-03T00:27:53.490Z,100127.96
2019-01-03T00:30:58.665Z,100124.97
2019-01-03T00:33:47.390Z,100126.44
2019-01-03T00:36:36.101Z,100133.50
2019-01-03T00:39:27.954Z,100130.74
2019-01-03T00:42:28.577Z,100140.68
2019-01-03T00:45:26.064Z,100140.12
2019-01-03T00:48:14.866Z,100143.38
2019-01-03T00:51:03.309Z,100145.48
2019-01-03T00:54:07.928Z,100144.00
2019-01-03T00:57:12.404Z,100150.11
2019-01-03T01:00:01.160Z,100149.59
2019-01-03T01:03:06.504Z,100164.50
2019-01-03T01:06:01.170Z,100168.46
2019-01-03T01:09:05.773Z,100165.96
2019-01-03T01:11:57.631Z,100173.59
2019-01-03T01:15:02.641Z,100173.81
2019-01-03T01:17:57.482Z,100183.52
2019-01-03T01:21:01.299Z,100182.23
2019-01-03T01:24:06.615Z,100180.70
2019-01-03T01:27:01.553Z,100180.34
2019-01-03T01:29:58.981Z,100180.80
2019-01-03T01:33:04.538Z,100180.88
2019-01-03T01:36:11.158Z,100185.17
2019-01-03T01:39:06.023Z,100188.08
2019-01-03T01:41:54.711Z,100187.98
2019-01-03T01:44:43.158Z,100189.06
2019-01-03T01:47:47.967Z,100195.79
2019-01-03T01:50:52.977Z,100201.88
2019-01-03T01:53:50.613Z,100197.01
2019-01-03T01:56:51.465Z,100207.23
2019-01-03T01:59:42.574Z,100203.89
2019-01-03T02:02:31.499Z,100205.40
2019-01-03T02:05:29.672Z,100208.30
2019-01-03T02:08:18.626Z,100200.27
2019-01-03T02:11:23.869Z,100202.51
2019-01-03T02:14:15.476Z,100203.20
2019-01-03T02:17:12.855Z,100196.98
2019-01-03T02:20:17.756Z,100202.27
2019-01-03T02:23:06.485Z,100200.97
2019-01-03T02:26:06.842Z,100198.30
2019-01-03T02:28:55.550Z,100203.33
2019-01-03T02:31:50.188Z,100202.87
2019-01-03T02:34:55.142Z,100197.06
2019-01-03T02:37:44.238Z,100194.92
2019-01-03T02:40:33.008Z,100185.36
2019-01-03T02:43:24.367Z,100182.56
2019-01-03T02:46:24.829Z,100187.83
2019-01-03T02:49:28.599Z,100182.70
2019-01-03T02:52:23.137Z,100172.78
2019-01-03T02:55:17.270Z,100167.75
2019-01-03T02:58:06.040Z,100173.09
2019-01-03T03:01:00.724Z,100171.49
2019-01-03T03:03:58.110Z,100169.66
2019-01-03T03:07:02.671Z,100169.50
2019-01-03T03:09:57.326Z,100166.36
2019-01-03T03:13:02.172Z,100166.67
2019-01-03T03:15:50.908Z,100163.08
2019-01-03T03:18:42.333Z,100157.80
2019-01-03T03:21:31.329Z,100158.80
2019-01-03T03:24:19.949Z,100152.02
2019-01-03T03:27:08.648Z,100155.97
2019-01-03T03:30:15.119Z,100150.93
2019-01-03T03:33:19.153Z,100149.54
2019-01-03T03:36:10.769Z,100159.75
2019-01-03T03:38:59.526Z,100154.42
2019-01-03T03:41:51.309Z,100160.72
2019-01-03T03:44:42.575Z,100163.86
2019-01-03T03:47:33.882Z,100151.68
2019-01-03T03:50:40.829Z,100149.78
2019-01-03T03:53:35.803Z,100138.42
2019-01-03T03:56:42.566Z,100127.30
2019-01-03T03:59:36.980Z,100121.93
2019-01-03T04:02:34.613Z,100135.89
2019-01-03T04:05:32.430Z,100141.91
2019-01-03T04:08:38.688Z,100141.46
2019-01-03T04:11:39.108Z,100140.02
2019-01-03T04:14:44.321Z,100143.91
2019-01-03T04:17:38.731Z,100143.75
2019-01-03T04:20:30.284Z,100142.06
2019-01-03T04:23:19.555Z,100130.70
2019-01-03T04:26:24.378Z,100124.43
2019-01-03T04:29:19.390Z,100130.45
2019-01-03T04:32:10.921Z,100130.45
2019-01-03T04:35:05.085Z,100135.94
2019-01-03T04:38:09.503Z,100127.11
2019-01-03T04:41:06.862Z,100136.13
2019-01-03T04:43:57.899Z,100131.05
2019-01-03T04:46:58.818Z,100134.34
2019-01-03T04:49:47.870Z,100138.93
2019-01-03T04:52:52.615Z,100137.09
2019-01-03T04:55:57.492Z,100131.45
2019-01-03T04:58:49.644Z,100138.72
2019-01-03T05:02:05.566Z,100143.91
2019-01-03T05:05:10.316Z,100151.34
2019-01-03T05:08:01.807Z,100152.48
2019-01-03T05:10:53.746Z,100156.45
2019-01-03T05:13:50.802Z,100159.49
2019-01-03T05:16:42.364Z,100157.27
2019-01-03T05:19:42.630Z,100156.26
2019-01-03T05:22:31.387Z,100148.91
2019-01-03T05:25:35.890Z,100142.64
2019-01-03T05:28:25.005Z,100134.03
2019-01-03T05:31:25.814Z,100134.84
2019-01-03T05:34:20.742Z,100143.41
2019-01-03T05:37:12.345Z,100137.12
2019-01-03T05:40:16.920Z,100129.89
2019-01-03T05:43:05.975Z,100134.67
2019-01-03T05:45:58.677Z,100145.91
2019-01-03T05:48:53.506Z,100157.82
2019-01-03T05:51:51.054Z,100156.65
2019-01-03T05:54:55.282Z,100153.13
2019-01-03T05:58:00.407Z,100149.78
2019-01-03T06:00:54.865Z,100152.37
2019-01-03T06:03:43.885Z,100150.77
2019-01-03T06:06:35.085Z,100152.20
2019-01-03T06:09:40.170Z,100149.13
2019-01-03T06:12:31.729Z,100148.63
2019-01-03T06:15:23.878Z,100146.63
2019-01-03T06:18:27.631Z,100142.03
2019-01-03T06:21:19.030Z,100143.91
2019-01-03T06:24:10.393Z,100144.89
2019-01-03T06:27:07.757Z,100138.79
2019-01-03T06:30:12.366Z,100143.33
2019-01-03T06:33:10.393Z,100144.78
2019-01-03T06:36:07.921Z,100148.86
2019-01-03T06:39:12.575Z,100153.52
2019-01-03T06:42:18.908Z,100156.14
2019-01-03T06:45:24.583Z,100145.16
2019-01-03T06:48:29.461Z,100137.53
2019-01-03T06:51:36.238Z,100141.00
2019-01-03T06:54:28.174Z,100141.27
2019-01-03T06:57:26.171Z,100158.02
2019-01-03T07:00:15.394Z,100164.75
2019-01-03T07:03:19.788Z,100167.98
2019-01-03T07:06:23.333Z,100168.42
2019-01-03T07:09:23.985Z,100163.25
2019-01-03T07:12:12.552Z,100168.91
2019-01-03T07:15:17.137Z,100177.61
2019-01-03T07:18:05.929Z,100166.90
2019-01-03T07:21:10.877Z,100174.80
2019-01-03T07:24:14.465Z,100175.24
2019-01-03T07:27:05.538Z,100181.84
2019-01-03T07:30:10.318Z,100180.15
2019-01-03T07:33:08.027Z,100173.59
2019-01-03T07:35:56.406Z,100182.20
2019-01-03T07:38:51.016Z,100190.81
2019-01-03T07:41:46.409Z,100188.30
2019-01-03T07:44:49.990Z,100193.48
2019-01-03T07:47:54.356Z,100213.55
2019-01-03T07:50:45.937Z,100210.95
2019-01-03T07:53:50.599Z,100208.91
2019-01-03T07:56:57.229Z,100207.61
2019-01-03T07:59:51.853Z,100208.78
2019-01-03T08:02:46.426Z,100196.52
2019-01-03T08:05:46.468Z,100201.30
2019-01-03T08:08:53.483Z,100201.95
2019-01-03T08:11:58.109Z,100203.30
2019-01-03T08:15:02.844Z,100205.70
2019-01-03T08:18:00.281Z,100210.56
2019-01-03T08:21:07.450Z,100208.34
2019-01-03T08:23:56.082Z,100209.96
2019-01-03T08:26:47.841Z,100223.59
2019-01-03T08:29:42.195Z,100212.52
2019-01-03T08:32:46.483Z,100211.33
2019-01-03T08:35:44.323Z,100220.73
2019-01-03T08:38:48.751Z,100220.20
2019-01-03T08:41:43.643Z,100216.39
2019-01-03T08:44:44.676Z,100220.08
2019-01-03T08:47:39.420Z,100220.58
2019-01-03T08:50:45.846Z,100224.27
2019-01-03T08:53:35.011Z,100223.42
2019-01-03T08:56:26.984Z,100221.34
2019-01-03T08:59:32.085Z,100227.67
2019-01-03T09:02:32.792Z,100230.59
2019-01-03T09:05:37.702Z,100223.42
2019-01-03T09:08:35.286Z,100218.12
2019-01-03T09:11:36.196Z,100208.88
2019-01-03T09:14:27.088Z,100219.05
2019-01-03T09:17:24.228Z,100219.43
2019-01-03T09:20:29.503Z,100216.84
2019-01-03T09:23:36.327Z,100227.66
2019-01-03T09:26:37.332Z,100227.33
2019-01-03T09:29:43.901Z,100228.53
2019-01-03T09:32:32.908Z,100227.75
2019-01-03T09:35:27.763Z,100231.53
2019-01-03T09:38:22.150Z,100222.41
2019-01-03T09:41:26.824Z,100229.18
2019-01-03T09:44:27.364Z,100222.54
2019-01-03T09:47:14.918Z,100226.33
2019-01-03T09:50:02.412Z,100219.63
2019-01-03T09:52:49.828Z,100222.03
2019-01-03T09:55:37.164Z,100224.44
2019-01-03T09:58:24.284Z,100210.72
2019-01-03T10:01:11.664Z,100214.73
2019-01-03T10:03:59.123Z,100204.36
2019-01-03T10:06:46.307Z,100198.42
2019-01-03T10:09:33.770Z,100201.30
2019-01-03T10:12:20.943Z,100199.95
2019-01-03T10:15:08.298Z,100196.91
2019-01-03T10:17:55.657Z,100198.40
2019-01-03T10:20:43.038Z,100188.26
2019-01-03T10:23:30.597Z,100180.17
2019-01-03T10:26:18.776Z,100179.61
2019-01-03T10:29:05.684Z,100174.91
2019-01-03T10:31:52.676Z,100178.69
2019-01-03T10:34:39.897Z,100176.08
2019-01-03T10:37:27.330Z,100167.89
2019-01-03T10:40:14.493Z,100163.13
2019-01-03T10:43:01.659Z,100159.34
2019-01-03T10:45:49.136Z,100168.07
2019-01-03T10:48:36.473Z,100161.03
2019-01-03T10:51:23.588Z,100158.72
2019-01-03T10:54:11.112Z,100151.93
2019-01-03T10:56:58.239Z,100153.56
2019-01-03T10:59:45.381Z,100148.66
2019-01-03T11:02:32.598Z,100150.05
2019-01-03T11:05:19.969Z,100146.52
2019-01-03T11:08:06.751Z,100140.95
2019-01-03T11:10:53.917Z,100146.51
2019-01-03T11:13:41.184Z,100152.81
2019-01-03T11:16:28.274Z,100147.19
2019-01-03T11:19:15.779Z,100139.36
2019-01-03T11:22:02.997Z,100136.26
2019-01-03T11:24:50.161Z,100144.50
2019-01-03T11:27:37.218Z,100143.22
2019-01-03T11:30:24.366Z,100129.29
2019-01-03T11:33:12.017Z,100132.57
2019-01-03T11:35:59.100Z,100127.81
2019-01-03T11:38:46.546Z,100133.69
2019-01-03T11:41:33.545Z,100128.81
2019-01-03T11:44:20.771Z,100128.72
2019-01-03T11:47:07.755Z,100135.74
2019-01-03T11:49:55.982Z,100136.78
2019-01-03T11:52:43.214Z,100141.30
2019-01-03T11:55:30.331Z,100147.04
2019-01-03T11:58:17.662Z,100137.15
2019-01-03T12:01:04.954Z,100137.22
2019-01-03T12:03:51.788Z,100124.45
2019-01-03T12:06:39.317Z,100125.44
2019-01-03T12:09:26.462Z,100118.97
2019-01-03T12:12:13.499Z,100123.47
2019-01-03T12:15:00.783Z,100122.30
2019-01-03T12:17:48.491Z,100117.05
2019-01-03T12:20:35.605Z,100115.85
2019-01-03T12:23:22.638Z,100114.08
2019-01-03T12:26:09.977Z,100110.61
2019-01-03T12:28:57.652Z,100113.02
2019-01-03T12:31:44.752Z,100112.64
2019-01-03T12:34:31.811Z,100107.23
2019-01-03T12:37:19.385Z,100109.55
2019-01-03T12:40:07.581Z,100108.94
2019-01-03T12:42:54.703Z,100113.68
2019-01-03T12:45:42.350Z,100117.67
2019-01-03T12:48:30.582Z,100110.27
2019-01-03T12:51:17.654Z,100117.24
2019-01-03T12:54:04.510Z,100106.93
2019-01-03T12:56:51.703Z,100107.31
2019-01-03T12:59:38.572Z,100115.02
2019-01-03T13:02:26.031Z,100108.23
2019-01-03T13:05:13.364Z,100106.66
2019-01-03T13:08:00.707Z,100115.09
2019-01-03T13:10:48.046Z,100109.92
2019-01-03T13:13:35.089Z,100108.42
2019-01-03T13:16:22.669Z,100112.80
2019-01-03T13:19:09.640Z,100108.97
2019-01-03T13:21:57.032Z,100113.98
2019-01-03T13:24:44.279Z,100119.39
2019-01-03T13:27:31.669Z,100120.31
2019-01-03T13:30:19.044Z,100119.31
2019-01-03T13:33:06.344Z,100120.22
2019-01-03T13:35:53.779Z,100121.58
2019-01-03T13:38:40.928Z,100122.86
2019-01-03T13:41:28.200Z,100117.03
2019-01-03T13:44:15.514Z,100114.62
2019-01-03T13:47:02.353Z,100121.80
2019-01-03T13:49:49.782Z,100113.95
2019-01-03T13:52:36.653Z,100119.78
2019-01-03T13:55:23.860Z,100120.80
2019-01-03T13:58:10.917Z,100122.19
2019-01-03T14:00:57.931Z,100126.69
2019-01-03T14:03:45.180Z,100133.44
2019-01-03T14:06:32.256Z,100134.17
2019-01-03T14:09:19.653Z,100138.46
2019-01-03T14:12:06.862Z,100136.66
2019-01-03T14:14:53.764Z,100140.55
2019-01-03T14:17:40.832Z,100144.14
2019-01-03T14:20:28.231Z,100148.43
2019-01-03T14:23:15.384Z,100153.40
2019-01-03T14:26:02.543Z,100150.18
2019-01-03T14:28:49.909Z,100140.98
2019-01-03T14:31:37.082Z,100141.16
2019-01-03T14:34:24.242Z,100144.55
2019-01-03T14:37:11.432Z,100135.24
2019-01-03T14:39:58.871Z,100142.17
2019-01-03T14:42:46.244Z,100149.64
2019-01-03T14:45:33.325Z,100151.91
2019-01-03T14:48:20.744Z,100147.32
2019-01-03T14:51:08.356Z,100150.84
2019-01-03T14:53:55.724Z,100150.58
2019-01-03T14:56:42.787Z,100144.67
2019-01-03T14:59:30.315Z,100145.52
2019-01-03T15:02:17.770Z,100146.73
2019-01-03T15:05:05.316Z,100144.86
2019-01-03T15:07:52.433Z,100146.82
2019-01-03T15:10:39.697Z,100134.81
2019-01-03T15:13:26.784Z,100143.48
2019-01-03T15:16:14.017Z,100143.88
2019-01-03T15:19:01.005Z,100139.39
2019-01-03T15:21:48.116Z,100147.02
2019-01-03T15:24:35.147Z,100136.44
2019-01-03T15:27:22.274Z,100132.88
2019-01-03T15:30:11.104Z,100139.13
2019-01-03T15:32:57.893Z,100139.04
2019-01-03T15:35:45.232Z,100141.18
2019-01-03T15:38:32.412Z,100135.01
2019-01-03T15:41:19.763Z,100132.98
2019-01-03T15:44:06.665Z,100128.22
2019-01-03T15:46:53.916Z,100137.05
2019-01-03T15:49:40.816Z,100137.78
2019-01-03T15:52:28.228Z,100143.37
2019-01-03T15:55:15.426Z,100137.80
2019-01-03T15:58:02.858Z,100144.00
2019-01-03T16:00:50.281Z,100142.22
2019-01-03T16:03:37.328Z,100146.40
2019-01-03T16:06:24.844Z,100139.36
2019-01-03T16:09:12.205Z,100134.81
2019-01-03T16:11:59.350Z,100134.30
2019-01-03T16:14:46.634Z,100128.65
2019-01-03T16:17:34.004Z,100130.69
2019-01-03T16:20:21.360Z,100134.80
2019-01-03T16:23:08.308Z,100135.05
2019-01-03T16:25:55.471Z,100134.99
2019-01-03T16:28:42.599Z,100136.49
2019-01-03T16:31:29.927Z,100139.63
2019-01-03T16:34:17.316Z,100137.87
2019-01-03T16:37:04.780Z,100147.19
2019-01-03T16:39:52.049Z,100144.47
2019-01-03T16:42:43.073Z,100156.19
2019-01-03T16:45:30.303Z,100142.71
2019-01-03T16:48:17.720Z,100150.06
2019-01-03T16:51:05.415Z,100147.08
2019-01-03T16:53:53.260Z,100150.81
2019-01-03T16:56:40.492Z,100148.56
2019-01-03T16:59:27.636Z,100150.05
2019-01-03T17:02:15.578Z,100150.23
2019-01-03T17:05:03.018Z,100149.19
2019-01-03T17:07:51.214Z,100151.69
2019-01-03T17:10:38.096Z,100159.48
2019-01-03T17:13:25.320Z,100164.20
2019-01-03T17:16:12.827Z,100161.32
2019-01-03T17:19:00.142Z,100165.22
2019-01-03T17:21:47.244Z,100171.14
2019-01-03T17:24:34.594Z,100165.34
2019-01-03T17:27:21.808Z,100174.91
2019-01-03T17:30:10.521Z,100174.62
2019-01-03T17:32:57.605Z,100169.06
2019-01-03T17:35:44.992Z,100169.56
2019-01-03T17:38:32.065Z,100172.27
2019-01-03T17:41:19.393Z,100177.77
2019-01-03T17:44:06.344Z,100179.05
2019-01-03T17:46:53.755Z,100177.47
2019-01-03T17:49:40.537Z,100175.04
2019-01-03T17:52:28.001Z,100182.38
2019-01-03T17:55:15.545Z,100181.80
2019-01-03T17:58:02.930Z,100190.41
2019-01-03T18:00:49.823Z,100180.30
2019-01-03T18:03:37.216Z,100179.63
2019-01-03T18:06:24.059Z,100187.09
2019-01-03T18:09:11.526Z,100194.26
2019-01-03T18:11:58.625Z,100198.09
2019-01-03T18:14:46.938Z,100188.98
2019-01-03T18:17:33.997Z,100188.14
2019-01-03T18:20:21.062Z,100186.39
2019-01-03T18:23:08.774Z,100188.53
2019-01-03T18:25:56.249Z,100184.62
2019-01-03T18:28:43.737Z,100187.13
2019-01-03T18:31:30.838Z,100188.04
2019-01-03T18:34:18.122Z,100181.19
2019-01-03T18:37:05.377Z,100180.71
2019-01-03T18:39:52.453Z,100181.22
2019-01-03T18:42:39.960Z,100187.06
2019-01-03T18:45:26.947Z,100180.73
2019-01-03T18:48:13.981Z,100182.13
2019-01-03T18:51:01.391Z,100176.98
2019-01-03T18:53:48.709Z,100180.08
2019-01-03T18:56:35.840Z,100169.23
2019-01-03T18:59:23.232Z,100183.52
2019-01-03T19:02:10.812Z,100185.35
2019-01-03T19:04:57.873Z,100182.75
2019-01-03T19:07:45.020Z,100188.80
2019-01-03T19:10:32.445Z,100188.63
2019-01-03T19:13:19.405Z,100184.80
2019-01-03T19:16:06.830Z,100181.56
2019-01-03T19:18:54.305Z,100181.67
2019-01-03T19:21:41.593Z,100177.48
2019-01-03T19:24:28.968Z,100179.98
2019-01-03T19:27:15.839Z,100180.25
2019-01-03T19:30:03.791Z,100178.16
2019-01-03T19:32:50.773Z,100181.42
2019-01-03T19:35:38.023Z,100181.86
2019-01-03T19:38:25.550Z,100178.87
2019-01-03T19:41:13.381Z,100175.17
2019-01-03T19:44:00.900Z,100188.00
2019-01-03T19:46:48.900Z,100190.24
2019-01-03T19:49:36.545Z,100197.19
2019-01-03T19:52:23.748Z,100195.92
2019-01-03T19:55:11.306Z,100195.02
2019-01-03T19:57:58.762Z,100195.19
2019-01-03T20:00:46.269Z,100197.81
2019-01-03T20:03:33.423Z,100201.34
2019-01-03T20:06:20.898Z,100198.20
2019-01-03T20:09:08.240Z,100202.86
2019-01-03T20:11:55.498Z,100206.67
2019-01-03T20:14:42.745Z,100202.91
2019-01-03T20:17:29.923Z,100203.38
2019-01-03T20:20:17.246Z,100204.69
2019-01-03T20:23:04.423Z,100193.95
2019-01-03T20:25:51.691Z,100194.97
2019-01-03T20:28:42.663Z,100191.85
2019-01-03T20:31:29.997Z,100195.05
2019-01-03T20:34:17.706Z,100199.66
2019-01-03T20:37:04.845Z,100200.08
2019-01-03T20:39:52.394Z,100207.84
2019-01-03T20:42:39.826Z,100207.18
2019-01-03T20:45:26.871Z,100204.36
2019-01-03T20:48:13.923Z,100202.22
2019-01-03T20:51:01.499Z,100204.95
2019-01-03T20:53:48.418Z,100211.78
2019-01-03T20:56:35.411Z,100210.80
2019-01-03T20:59:22.615Z,100203.83
2019-01-03T21:02:09.835Z,100208.27
2019-01-03T21:04:57.130Z,100198.27
2019-01-03T21:07:44.709Z,100202.96
2019-01-03T21:10:31.949Z,100206.76
2019-01-03T21:13:19.330Z,100204.26
2019-01-03T21:16:06.615Z,100206.48
2019-01-03T21:18:54.307Z,100205.35
2019-01-03T21:21:41.740Z,100196.25
2019-01-03T21:24:29.020Z,100205.53
2019-01-03T21:27:16.641Z,100217.55
2019-01-03T21:30:05.573Z,100211.95
2019-01-03T21:32:52.764Z,100223.14
2019-01-03T21:35:39.968Z,100220.47
2019-01-03T21:38:28.522Z,100213.72
2019-01-03T21:41:21.240Z,100213.93
2019-01-03T21:44:08.642Z,100217.48
2019-01-03T21:46:56.149Z,100217.48
2019-01-03T21:49:43.444Z,100220.61
2019-01-03T21:52:31.064Z,100215.59
2019-01-03T21:55:18.004Z,100221.50
2019-01-03T21:58:07.500Z,100217.69
2019-01-03T22:00:54.671Z,100216.03
2019-01-03T22:03:41.869Z,100212.06
2019-01-03T22:06:29.049Z,100217.87
2019-01-03T22:09:16.897Z,100206.06
2019-01-03T22:12:04.109Z,100213.62
2019-01-03T22:14:51.543Z,100221.98
2019-01-03T22:17:38.356Z,100219.06
2019-01-03T22:20:25.711Z,100207.53
2019-01-03T22:23:12.960Z,100204.47
2019-01-03T22:25:59.921Z,100205.11
2019-01-03T22:28:46.931Z,100206.87
2019-01-03T22:31:34.209Z,100195.37
2019-01-03T22:34:21.242Z,100198.08
2019-01-03T22:37:08.324Z,100201.62
2019-01-03T22:39:55.571Z,100196.67
2019-01-03T22:42:42.629Z,100196.87
2019-01-03T22:45:29.800Z,100195.09
2019-01-03T22:48:16.615Z,100188.79
2019-01-03T22:51:03.907Z,100190.09
2019-01-03T22:53:50.985Z,100195.41
2019-01-03T22:56:38.001Z,100187.21
2019-01-03T22:59:25.374Z,100190.27
2019-01-03T23:02:13.384Z,100195.92
2019-01-03T23:05:00.452Z,100191.36
2019-01-03T23:07:47.513Z,100192.06
2019-01-03T23:10:34.702Z,100185.27
2019-01-03T23:13:21.983Z,100179.55
2019-01-03T23:16:09.464Z,100183.05
2019-01-03T23:18:56.666Z,100180.21
2019-01-03T23:21:44.774Z,100187.20
2019-01-03T23:24:31.891Z,100181.72
2019-01-03T23:27:19.076Z,100178.03
2019-01-03T23:30:08.440Z,100182.98
2019-01-03T23:32:55.910Z,100186.33
2019-01-03T23:35:42.964Z,100181.06
2019-01-03T23:38:30.489Z,100180.17
2019-01-03T23:41:18.100Z,100169.31
2019-01-03T23:44:05.473Z,100157.91
2019-01-03T23:46:52.691Z,100151.93
2019-01-03T23:49:40.270Z,100167.28
2019-01-03T23:52:27.773Z,100168.16
2019-01-03T23:55:15.344Z,100173.75
2019-01-03T23:58:02.773Z,100172.29
